| time (UTC) | temp C | wind direction | speed KPH | gust KPH | rain 1hr cm | rain 24hr cm | rain mn cm | humidity % | barometer mb |
| 20260906134703 | 20 | 131 | 9.7 | 9.7 | 0.00 | 0.00 | 0.00 | 82 | 1024.4 |
| 20260906134159 | 20 | 105 | 8.0 | 9.7 | 0.00 | 0.00 | 0.00 | 81 | 1024.5 |
| 20260906133654 | 20 | 122 | 4.8 | 6.4 | 0.00 | 0.00 | 0.00 | 83 | 1024.4 |
| 20260906133149 | 20 | 113 | 9.7 | 12.9 | 0.00 | 0.00 | 0.00 | 84 | 1024.3 |
| 20260906132644 | 20 | 97 | 6.4 | 9.7 | 0.00 | 0.00 | 0.00 | 86 | 1024.3 |
| 20260906132140 | 19 | 79 | 9.7 | 12.9 | 0.00 | 0.00 | 0.00 | 86 | 1024.5 |
| 20260906131636 | 19 | 101 | 11.3 | 14.5 | 0.00 | 0.00 | 0.00 | 87 | 1024.3 |
| 20260906131130 | 19 | 95 | 8.0 | 9.7 | 0.00 | 0.00 | 0.00 | 87 | 1024.4 |
| 20260906130626 | 19 | 84 | 6.4 | 9.7 | 0.00 | 0.00 | 0.00 | 89 | 1024.5 |
| 20260906130121 | 19 | 66 | 11.3 | 14.5 | 0.00 | 0.00 | 0.00 | 87 | 1024.4 |
| 20260906125619 | 18 | 77 | 8.0 | 8.0 | 0.00 | 0.00 | 0.00 | 89 | 1024.4 |
| 20260906125117 | 19 | 75 | 6.4 | 8.0 | 0.00 | 0.00 | 0.00 | 90 | 1024.5 |
| 20260906124613 | 18 | 77 | 6.4 | 8.0 | 0.00 | 0.00 | 0.00 | 91 | 1024.5 |
| 20260906124108 | 18 | 108 | 8.0 | 8.0 | 0.00 | 0.00 | 0.00 | 91 | 1024.3 |
| 20260906123608 | 18 | 101 | 9.7 | 9.7 | 0.00 | 0.00 | 0.00 | 93 | 1024.4 |
| 20260906123103 | 17 | 32 | 3.2 | 3.2 | 0.00 | 0.00 | 0.00 | 96 | 1024.4 |
| 20260906122601 | 17 | 92 | 3.2 | 3.2 | 0.00 | 0.00 | 0.00 | 96 | 1024.6 |
| 20260906122058 | 17 | 81 | 4.8 | 6.4 | 0.00 | 0.00 | 0.00 | 98 | 1024.4 |
| 20260906121554 | 17 | 42 | 1.6 | 3.2 | 0.00 | 0.00 | 0.00 | 98 | 1024.3 |
| 20260906121051 | 17 | 90 | 3.2 | 3.2 | 0.00 | 0.00 | 0.00 | 98 | 1024.3 |
| 20260906120551 | 17 | 24 | 3.2 | 3.2 | 0.00 | 0.00 | 0.00 | 98 | 1024.4 |
| 20260906120049 | 17 | 18 | 0.0 | 0.0 | 0.00 | 0.00 | 0.00 | 99 | 1024.2 |
| 20260906115548 | 16 | 17 | 0.0 | 0.0 | 0.00 | 0.00 | 0.00 | 99 | 1024.1 |
| 20260906115043 | 16 | 23 | 3.2 | 3.2 | 0.00 | 0.00 | 0.00 | 99 | 1024.0 |
| 20260906114537 | 16 | 5 | 0.0 | 0.0 | 0.00 | 0.00 | 0.00 | 99 | 1024.2 |
| 20260906114033 | 16 | 4 | 3.2 | 3.2 | 0.00 | 0.00 | 0.00 | 99 | 1024.1 |
| 20260906113532 | 16 | 357 | 0.0 | 0.0 | 0.00 | 0.00 | 0.00 | 99 | 1024.2 |
| 20260906113027 | 16 | 358 | 0.0 | 0.0 | 0.00 | 0.00 | 0.00 | 99 | 1024.1 |
| 20260906112522 | 16 | 0 | 0.0 | 0.0 | 0.00 | 0.00 | 0.00 | 99 | 1024.2 |
| 20260906112019 | 16 | 2 | 0.0 | 0.0 | 0.00 | 0.00 | 0.00 | 99 | 1024.0 |
| 20260906111518 | 16 | 6 | 0.0 | 0.0 | 0.00 | 0.00 | 0.00 | 99 | 1023.9 |
| 20260906111014 | 16 | 6 | 0.0 | 0.0 | 0.00 | 0.00 | 0.00 | 99 | 1023.9 |
| 20260906110508 | 16 | 9 | 0.0 | 0.0 | 0.00 | 0.00 | 0.00 | 99 | 1023.9 |
| 20260906110007 | 16 | 10 | 0.0 | 0.0 | 0.00 | 0.00 | 0.00 | 99 | 1023.7 |
| 20260906105503 | 16 | 10 | 0.0 | 0.0 | 0.00 | 0.00 | 0.00 | 99 | 1023.9 |
| 20260906104959 | 16 | 13 | 0.0 | 0.0 | 0.00 | 0.00 | 0.00 | 99 | 1023.7 |
| 20260906104457 | 16 | 14 | 0.0 | 0.0 | 0.00 | 0.00 | 0.00 | 99 | 1023.7 |
| 20260906103956 | 16 | 15 | 0.0 | 0.0 | 0.00 | 0.00 | 0.00 | 99 | 1023.6 |
| 20260906103454 | 16 | 17 | 0.0 | 0.0 | 0.00 | 0.00 | 0.00 | 99 | 1023.4 |
| 20260906102950 | 16 | 22 | 3.2 | 3.2 | 0.00 | 0.00 | 0.00 | 99 | 1023.5 |
| 20260906102444 | 16 | 5 | 0.0 | 0.0 | 0.00 | 0.00 | 0.00 | 99 | 1023.4 |
| 20260906101939 | 17 | 12 | 0.0 | 0.0 | 0.00 | 0.00 | 0.00 | 99 | 1023.4 |
| 20260906101435 | 17 | 55 | 4.8 | 6.4 | 0.00 | 0.00 | 0.00 | 99 | 1023.0 |
| 20260906100930 | 17 | 77 | 3.2 | 3.2 | 0.00 | 0.00 | 0.00 | 98 | 1023.0 |
| 20260906100429 | 17 | 21 | 3.2 | 3.2 | 0.00 | 0.00 | 0.00 | 99 | 1023.0 |
| 20260906095924 | 17 | 71 | 4.8 | 6.4 | 0.00 | 0.00 | 0.00 | 99 | 1022.9 |
| 20260906095420 | 17 | 71 | 4.8 | 6.4 | 0.00 | 0.00 | 0.00 | 99 | 1022.9 |
| 20260906094920 | 17 | 20 | 3.2 | 6.4 | 0.00 | 0.00 | 0.00 | 99 | 1022.8 |
| 20260906094414 | 17 | 85 | 4.8 | 6.4 | 0.00 | 0.00 | 0.00 | 99 | 1022.6 |
| 20260906093905 | 17 | 77 | 4.8 | 6.4 | 0.00 | 0.00 | 0.00 | 99 | 1022.7 |
| 20260906093402 | 17 | 81 | 3.2 | 3.2 | 0.00 | 0.00 | 0.00 | 98 | 1022.7 |
| 20260906092900 | 17 | 92 | 4.8 | 6.4 | 0.00 | 0.00 | 0.00 | 98 | 1022.9 |
| 20260906092400 | 17 | 75 | 6.4 | 8.0 | 0.00 | 0.00 | 0.00 | 98 | 1023.1 |
| 20260906091856 | 17 | 36 | 4.8 | 6.4 | 0.00 | 0.00 | 0.00 | 98 | 1023.2 |
| 20260906091352 | 17 | 77 | 4.8 | 6.4 | 0.00 | 0.00 | 0.00 | 98 | 1023.4 |
| 20260906090848 | 17 | 20 | 3.2 | 3.2 | 0.00 | 0.00 | 0.00 | 98 | 1023.2 |
| 20260906090347 | 17 | 70 | 3.2 | 3.2 | 0.00 | 0.00 | 0.00 | 98 | 1023.2 |
| 20260906085842 | 17 | 15 | 3.2 | 3.2 | 0.00 | 0.00 | 0.00 | 98 | 1023.3 |
| 20260906085335 | 17 | 24 | 1.6 | 3.2 | 0.00 | 0.00 | 0.00 | 98 | 1023.2 |
| 20260906084830 | 17 | 92 | 6.4 | 6.4 | 0.00 | 0.00 | 0.00 | 98 | 1023.2 |
| 20260906084330 | 17 | 86 | 6.4 | 6.4 | 0.00 | 0.00 | 0.00 | 98 | 1023.3 |
| 20260906083825 | 18 | 58 | 3.2 | 3.2 | 0.00 | 0.00 | 0.00 | 98 | 1023.2 |
| 20260906083320 | 17 | 57 | 4.8 | 6.4 | 0.00 | 0.00 | 0.00 | 98 | 1023.1 |
| 20260906082814 | 18 | 34 | 3.2 | 3.2 | 0.00 | 0.00 | 0.00 | 98 | 1023.3 |
| 20260906082310 | 18 | 59 | 3.2 | 6.4 | 0.00 | 0.00 | 0.00 | 98 | 1023.1 |
| 20260906081805 | 18 | 16 | 3.2 | 3.2 | 0.00 | 0.00 | 0.00 | 99 | 1023.2 |
| 20260906081301 | 18 | 94 | 4.8 | 6.4 | 0.00 | 0.00 | 0.00 | 99 | 1023.2 |
| 20260906080758 | 18 | 74 | 4.8 | 6.4 | 0.00 | 0.00 | 0.00 | 99 | 1023.2 |
| 20260906080254 | 17 | 8 | 3.2 | 3.2 | 0.00 | 0.00 | 0.00 | 99 | 1023.3 |
| 20260906075753 | 17 | 98 | 4.8 | 6.4 | 0.00 | 0.00 | 0.00 | 99 | 1023.1 |
| 20260906075253 | 17 | 37 | 0.0 | 0.0 | 0.00 | 0.00 | 0.00 | 99 | 1023.1 |
| 20260906074748 | 17 | 347 | 0.0 | 0.0 | 0.00 | 0.00 | 0.00 | 99 | 1023.4 |
| 20260906074247 | 17 | 344 | 0.0 | 0.0 | 0.00 | 0.00 | 0.00 | 99 | 1023.2 |
| 20260906073742 | 17 | 344 | 0.0 | 0.0 | 0.00 | 0.00 | 0.00 | 99 | 1023.4 |
| 20260906073242 | 17 | 344 | 0.0 | 0.0 | 0.00 | 0.00 | 0.00 | 99 | 1023.3 |
| 20260906072738 | 17 | 342 | 0.0 | 0.0 | 0.00 | 0.00 | 0.00 | 99 | 1023.4 |
| 20260906072233 | 17 | 340 | 0.0 | 0.0 | 0.00 | 0.00 | 0.00 | 99 | 1023.6 |
| 20260906071730 | 17 | 333 | 0.0 | 0.0 | 0.00 | 0.00 | 0.00 | 99 | 1023.6 |
| 20260906071229 | 17 | 340 | 0.0 | 0.0 | 0.00 | 0.00 | 0.00 | 98 | 1023.8 |
| 20260906070726 | 17 | 340 | 0.0 | 0.0 | 0.00 | 0.00 | 0.00 | 98 | 1023.7 |
| 20260906070221 | 17 | 342 | 0.0 | 0.0 | 0.00 | 0.00 | 0.00 | 98 | 1023.8 |
| 20260906065721 | 17 | 342 | 0.0 | 0.0 | 0.00 | 0.00 | 0.00 | 98 | 1023.7 |
| 20260906065216 | 17 | 342 | 0.0 | 0.0 | 0.00 | 0.00 | 0.00 | 98 | 1023.7 |
| 20260906064711 | 17 | 342 | 0.0 | 0.0 | 0.00 | 0.00 | 0.00 | 98 | 1023.6 |
| 20260906064207 | 17 | 342 | 0.0 | 0.0 | 0.00 | 0.00 | 0.00 | 98 | 1023.7 |
| 20260906063702 | 17 | 342 | 0.0 | 0.0 | 0.00 | 0.00 | 0.00 | 98 | 1023.6 |
| 20260906063157 | 17 | 342 | 0.0 | 0.0 | 0.00 | 0.00 | 0.00 | 98 | 1023.7 |
| 20260906062653 | 17 | 343 | 0.0 | 0.0 | 0.00 | 0.00 | 0.00 | 98 | 1023.8 |
| 20260906062152 | 17 | 342 | 0.0 | 0.0 | 0.00 | 0.00 | 0.00 | 97 | 1023.6 |
| 20260906061648 | 17 | 343 | 0.0 | 0.0 | 0.00 | 0.00 | 0.00 | 97 | 1023.5 |
| 20260906061148 | 18 | 343 | 0.0 | 0.0 | 0.00 | 0.00 | 0.00 | 97 | 1023.6 |
| 20260906060645 | 18 | 342 | 0.0 | 0.0 | 0.00 | 0.00 | 0.00 | 96 | 1023.5 |
| 20260906060142 | 18 | 342 | 0.0 | 0.0 | 0.00 | 0.00 | 0.00 | 95 | 1023.7 |
| 20260906055637 | 18 | 342 | 0.0 | 0.0 | 0.00 | 0.00 | 0.00 | 95 | 1023.6 |
| 20260906055132 | 18 | 346 | 0.0 | 0.0 | 0.00 | 0.00 | 0.00 | 95 | 1023.5 |
| 20260906054627 | 18 | 7 | 0.0 | 0.0 | 0.00 | 0.00 | 0.00 | 94 | 1023.6 |
| 20260906054122 | 18 | 12 | 0.0 | 0.0 | 0.00 | 0.00 | 0.00 | 94 | 1023.3 |
| 20260906053619 | 18 | 23 | 0.0 | 0.0 | 0.00 | 0.00 | 0.00 | 94 | 1023.4 |
| 20260906053114 | 19 | 31 | 1.6 | 1.6 | 0.00 | 0.00 | 0.00 | 93 | 1023.3 |
| 20260906052609 | 19 | 31 | 1.6 | 1.6 | 0.00 | 0.00 | 0.00 | 93 | 1023.2 |
| 20260906052106 | 19 | 29 | 3.2 | 3.2 | 0.00 | 0.00 | 0.00 | 92 | 1023.2 |
| 20260906051602 | 20 | 33 | 3.2 | 3.2 | 0.00 | 0.00 | 0.00 | 91 | 1023.3 |
| 20260906051057 | 20 | 105 | 3.2 | 3.2 | 0.00 | 0.00 | 0.00 | 92 | 1023.3 |
| 20260906050552 | 20 | 32 | 3.2 | 3.2 | 0.00 | 0.00 | 0.00 | 91 | 1022.9 |
| 20260906050047 | 20 | 88 | 4.8 | 6.4 | 0.00 | 0.00 | 0.00 | 90 | 1022.8 |
| 20260906045545 | 20 | 97 | 6.4 | 8.0 | 0.00 | 0.00 | 0.00 | 89 | 1023.0 |
| 20260906045041 | 20 | 134 | 6.4 | 8.0 | 0.00 | 0.00 | 0.00 | 90 | 1023.0 |
| 20260906044536 | 20 | 158 | 6.4 | 8.0 | 0.00 | 0.00 | 0.00 | 89 | 1023.1 |
| 20260906044032 | 20 | 156 | 8.0 | 9.7 | 0.00 | 0.00 | 0.00 | 89 | 1023.1 |
| 20260906043527 | 20 | 151 | 6.4 | 8.0 | 0.00 | 0.00 | 0.00 | 89 | 1022.9 |
| 20260906043024 | 20 | 167 | 9.7 | 12.9 | 0.00 | 0.00 | 0.00 | 90 | 1023.2 |
| 20260906042523 | 19 | 133 | 4.8 | 6.4 | 0.00 | 0.00 | 0.00 | 90 | 1023.1 |
| 20260906042022 | 20 | 28 | 1.6 | 1.6 | 0.00 | 0.00 | 0.00 | 90 | 1023.1 |
| 20260906041519 | 19 | 200 | 4.8 | 6.4 | 0.00 | 0.00 | 0.00 | 91 | 1023.0 |
| 20260906041019 | 20 | 11 | 1.6 | 3.2 | 0.00 | 0.00 | 0.00 | 90 | 1022.9 |
| 20260906040514 | 20 | 11 | 3.2 | 3.2 | 0.00 | 0.00 | 0.00 | 90 | 1022.9 |
| 20260906040010 | 20 | 277 | 0.0 | 0.0 | 0.00 | 0.00 | 0.00 | 90 | 1022.8 |
| 20260906035504 | 20 | 129 | 4.8 | 6.4 | 0.00 | 0.00 | 0.00 | 89 | 1022.7 |
| 20260906035000 | 19 | 90 | 4.8 | 6.4 | 0.00 | 0.00 | 0.00 | 90 | 1022.7 |
| 20260906034500 | 20 | 100 | 6.4 | 8.0 | 0.00 | 0.00 | 0.00 | 90 | 1022.7 |
| 20260906033955 | 20 | 100 | 4.8 | 6.4 | 0.00 | 0.00 | 0.00 | 89 | 1022.9 |
| 20260906033450 | 20 | 76 | 3.2 | 3.2 | 0.00 | 0.00 | 0.00 | 89 | 1022.7 |
| 20260906032946 | 20 | 46 | 3.2 | 3.2 | 0.00 | 0.00 | 0.00 | 89 | 1022.6 |
| 20260906032443 | 20 | 127 | 4.8 | 6.4 | 0.00 | 0.00 | 0.00 | 88 | 1022.6 |
| 20260906031942 | 20 | 97 | 4.8 | 6.4 | 0.00 | 0.00 | 0.00 | 89 | 1022.6 |
| 20260906031437 | 20 | 105 | 3.2 | 3.2 | 0.00 | 0.00 | 0.00 | 90 | 1022.5 |
| 20260906030933 | 20 | 117 | 3.2 | 3.2 | 0.00 | 0.00 | 0.00 | 89 | 1022.5 |
| 20260906030427 | 20 | 113 | 6.4 | 9.7 | 0.00 | 0.00 | 0.00 | 90 | 1022.5 |
| 20260906025922 | 20 | 109 | 3.2 | 3.2 | 0.00 | 0.00 | 0.00 | 92 | 1022.3 |
| 20260906025416 | 19 | 96 | 4.8 | 6.4 | 0.00 | 0.00 | 0.00 | 92 | 1022.2 |
| 20260906024915 | 20 | 94 | 4.8 | 6.4 | 0.00 | 0.00 | 0.00 | 91 | 1022.4 |
| 20260906024414 | 20 | 71 | 4.8 | 6.4 | 0.00 | 0.00 | 0.00 | 90 | 1022.3 |
| 20260906023910 | 20 | 94 | 4.8 | 8.0 | 0.00 | 0.00 | 0.00 | 89 | 1022.1 |
| 20260906023407 | 20 | 103 | 8.0 | 9.7 | 0.00 | 0.00 | 0.00 | 89 | 1021.9 |
| 20260906022906 | 20 | 154 | 4.8 | 6.4 | 0.00 | 0.00 | 0.00 | 90 | 1021.9 |
| 20260906022401 | 20 | 89 | 6.4 | 8.0 | 0.00 | 0.00 | 0.00 | 90 | 1021.9 |
| 20260906021857 | 20 | 118 | 6.4 | 8.0 | 0.00 | 0.00 | 0.00 | 91 | 1021.9 |
| 20260906021356 | 20 | 95 | 9.7 | 9.7 | 0.00 | 0.00 | 0.00 | 91 | 1021.6 |
| 20260906020851 | 20 | 131 | 9.7 | 12.9 | 0.00 | 0.00 | 0.00 | 90 | 1021.5 |
| 20260906020350 | 20 | 132 | 9.7 | 9.7 | 0.00 | 0.00 | 0.00 | 91 | 1021.6 |
| 20260906015845 | 20 | 113 | 11.3 | 14.5 | 0.00 | 0.00 | 0.00 | 91 | 1021.6 |
| 20260906015344 | 20 | 101 | 6.4 | 6.4 | 0.00 | 0.00 | 0.00 | 92 | 1021.4 |
| 20260906014844 | 20 | 90 | 4.8 | 6.4 | 0.00 | 0.00 | 0.00 | 92 | 1021.2 |
| 20260906014344 | 20 | 111 | 6.4 | 8.0 | 0.00 | 0.00 | 0.00 | 92 | 1021.2 |
| 20260906013841 | 20 | 83 | 4.8 | 6.4 | 0.00 | 0.00 | 0.00 | 92 | 1021.1 |
| 20260906013336 | 20 | 82 | 4.8 | 6.4 | 0.00 | 0.00 | 0.00 | 91 | 1021.2 |
| 20260906012831 | 20 | 81 | 4.8 | 6.4 | 0.00 | 0.00 | 0.00 | 92 | 1021.0 |
| 20260906012326 | 21 | 24 | 1.6 | 3.2 | 0.00 | 0.00 | 0.00 | 90 | 1021.1 |
| 20260906011826 | 21 | 24 | 1.6 | 3.2 | 0.00 | 0.00 | 0.00 | 90 | 1020.9 |
| 20260906011321 | 21 | 76 | 3.2 | 3.2 | 0.00 | 0.00 | 0.00 | 90 | 1021.0 |
| 20260906010817 | 21 | 81 | 6.4 | 8.0 | 0.00 | 0.00 | 0.00 | 89 | 1020.9 |
| 20260906010313 | 21 | 32 | 1.6 | 1.6 | 0.00 | 0.00 | 0.00 | 89 | 1020.9 |
| 20260906005808 | 21 | 32 | 3.2 | 3.2 | 0.00 | 0.00 | 0.00 | 88 | 1021.2 |
| 20260906005307 | 21 | 32 | 3.2 | 3.2 | 0.00 | 0.00 | 0.00 | 88 | 1020.9 |
| 20260906004806 | 21 | 32 | 1.6 | 3.2 | 0.00 | 0.00 | 0.00 | 88 | 1021.0 |
| 20260906004306 | 21 | 31 | 3.2 | 3.2 | 0.00 | 0.00 | 0.00 | 88 | 1020.9 |
| 20260906003802 | 22 | 68 | 3.2 | 3.2 | 0.00 | 0.00 | 0.00 | 87 | 1020.7 |
| 20260906003257 | 22 | 23 | 1.6 | 3.2 | 0.00 | 0.00 | 0.00 | 85 | 1021.0 |
| 20260906002753 | 22 | 23 | 3.2 | 3.2 | 0.00 | 0.00 | 0.00 | 85 | 1020.8 |
| 20260906002252 | 22 | 23 | 1.6 | 1.6 | 0.00 | 0.00 | 0.00 | 82 | 1020.8 |
| 20260906001748 | 23 | 23 | 1.6 | 1.6 | 0.00 | 0.00 | 0.00 | 80 | 1020.7 |
| 20260906001248 | 23 | 23 | 0.0 | 0.0 | 0.00 | 0.00 | 0.00 | 79 | 1020.7 |
| 20260906000743 | 23 | 24 | 0.0 | 0.0 | 0.00 | 0.00 | 0.00 | 79 | 1020.9 |
| 20260906000238 | 23 | 25 | 0.0 | 0.0 | 0.00 | 0.00 | 0.00 | 79 | 1020.9 |
| 20260905235733 | 23 | 25 | 1.6 | 1.6 | 0.00 | 0.00 | 0.00 | 77 | 1020.7 |
| 20260905235232 | 24 | 25 | 1.6 | 1.6 | 0.00 | 0.00 | 0.00 | 77 | 1020.8 |
| 20260905234728 | 24 | 23 | 3.2 | 3.2 | 0.00 | 0.00 | 0.00 | 76 | 1020.6 |
| 20260905234223 | 24 | 62 | 4.8 | 6.4 | 0.00 | 0.00 | 0.00 | 74 | 1021.0 |
| 20260905233718 | 25 | 97 | 4.8 | 6.4 | 0.00 | 0.00 | 0.00 | 73 | 1020.8 |
| 20260905233218 | 25 | 65 | 6.4 | 8.0 | 0.00 | 0.00 | 0.00 | 73 | 1020.9 |
| 20260905232713 | 25 | 10 | 4.8 | 6.4 | 0.00 | 0.00 | 0.00 | 72 | 1021.0 |
| 20260905232208 | 25 | 101 | 9.7 | 9.7 | 0.00 | 0.00 | 0.00 | 72 | 1021.1 |
| 20260905231704 | 25 | 40 | 4.8 | 6.4 | 0.00 | 0.00 | 0.00 | 71 | 1021.2 |
| 20260905231159 | 25 | 80 | 6.4 | 8.0 | 0.00 | 0.00 | 0.00 | 71 | 1021.3 |
| 20260905230655 | 25 | 14 | 3.2 | 3.2 | 0.00 | 0.00 | 0.00 | 70 | 1021.1 |
| 20260905230153 | 25 | 354 | 3.2 | 3.2 | 0.00 | 0.00 | 0.00 | 70 | 1021.2 |
| 20260905225653 | 25 | 52 | 4.8 | 6.4 | 0.00 | 0.00 | 0.00 | 70 | 1021.2 |
| 20260905225148 | 25 | 28 | 3.2 | 3.2 | 0.00 | 0.00 | 0.00 | 68 | 1021.2 |
| 20260905224647 | 25 | 71 | 6.4 | 8.0 | 0.00 | 0.00 | 0.00 | 68 | 1021.3 |
| 20260905224142 | 25 | 41 | 4.8 | 6.4 | 0.00 | 0.00 | 0.00 | 69 | 1021.3 |
| 20260905223639 | 25 | 25 | 3.2 | 3.2 | 0.00 | 0.00 | 0.00 | 70 | 1021.3 |
| 20260905223136 | 25 | 18 | 1.6 | 3.2 | 0.00 | 0.00 | 0.00 | 72 | 1021.2 |
| 20260905222631 | 25 | 79 | 4.8 | 6.4 | 0.00 | 0.00 | 0.00 | 71 | 1021.1 |
| 20260905222125 | 25 | 96 | 6.4 | 8.0 | 0.00 | 0.00 | 0.00 | 70 | 1021.3 |
| 20260905221621 | 25 | 23 | 3.2 | 3.2 | 0.00 | 0.00 | 0.00 | 72 | 1021.2 |
| 20260905221117 | 25 | 75 | 4.8 | 8.0 | 0.00 | 0.00 | 0.00 | 70 | 1021.2 |
| 20260905220613 | 25 | 7 | 1.6 | 1.6 | 0.00 | 0.00 | 0.00 | 70 | 1021.3 |
| 20260905220109 | 25 | 48 | 4.8 | 6.4 | 0.00 | 0.00 | 0.00 | 70 | 1021.0 |
| 20260905215608 | 25 | 53 | 6.4 | 8.0 | 0.00 | 0.00 | 0.00 | 72 | 1021.3 |
| 20260905215104 | 25 | 105 | 6.4 | 8.0 | 0.00 | 0.00 | 0.00 | 72 | 1021.3 |
| 20260905214600 | 26 | 348 | 6.4 | 8.0 | 0.00 | 0.00 | 0.00 | 69 | 1021.4 |
| 20260905214100 | 25 | 55 | 6.4 | 8.0 | 0.00 | 0.00 | 0.00 | 70 | 1021.3 |
| 20260905213601 | 25 | 81 | 6.4 | 8.0 | 0.00 | 0.00 | 0.00 | 73 | 1021.1 |
| 20260905213056 | 25 | 16 | 1.6 | 3.2 | 0.00 | 0.00 | 0.00 | 70 | 1021.2 |
| 20260905212556 | 25 | 54 | 6.4 | 8.0 | 0.00 | 0.00 | 0.00 | 72 | 1021.3 |
| 20260905212056 | 25 | 10 | 4.8 | 6.4 | 0.00 | 0.00 | 0.00 | 71 | 1021.3 |
| 20260905211551 | 26 | 90 | 9.7 | 12.9 | 0.00 | 0.00 | 0.00 | 70 | 1021.5 |
| 20260905211047 | 25 | 107 | 4.8 | 6.4 | 0.00 | 0.00 | 0.00 | 72 | 1021.5 |
| 20260905210542 | 25 | 95 | 3.2 | 6.4 | 0.00 | 0.00 | 0.00 | 73 | 1021.9 |
| 20260905210037 | 25 | 88 | 4.8 | 6.4 | 0.00 | 0.00 | 0.00 | 74 | 1021.8 |
| 20260905205537 | 25 | 65 | 3.2 | 6.4 | 0.00 | 0.00 | 0.00 | 75 | 1021.8 |
| 20260905205036 | 25 | 112 | 6.4 | 8.0 | 0.00 | 0.00 | 0.00 | 75 | 1021.6 |
| 20260905204531 | 25 | 48 | 11.3 | 16.1 | 0.00 | 0.00 | 0.00 | 76 | 1021.3 |
| 20260905204026 | 26 | 106 | 8.0 | 12.9 | 0.00 | 0.00 | 0.00 | 71 | 1021.3 |
| 20260905203526 | 25 | 86 | 9.7 | 12.9 | 0.00 | 0.00 | 0.00 | 72 | 1021.8 |
| 20260905203021 | 25 | 115 | 9.7 | 9.7 | 0.00 | 0.00 | 0.00 | 73 | 1021.5 |
| 20260905202517 | 26 | 91 | 9.7 | 12.9 | 0.00 | 0.00 | 0.00 | 73 | 1021.5 |
| 20260905202012 | 26 | 48 | 6.4 | 8.0 | 0.00 | 0.00 | 0.00 | 73 | 1021.8 |
| 20260905201508 | 25 | 89 | 6.4 | 9.7 | 0.00 | 0.00 | 0.00 | 75 | 1021.6 |
| 20260905201007 | 25 | 106 | 8.0 | 9.7 | 0.00 | 0.00 | 0.00 | 75 | 1021.8 |
| 20260905200503 | 25 | 19 | 6.4 | 9.7 | 0.00 | 0.00 | 0.00 | 76 | 1021.6 |
| 20260905200001 | 26 | 63 | 11.3 | 14.5 | 0.00 | 0.00 | 0.00 | 74 | 1021.6 |
| 20260905195456 | 25 | 82 | 8.0 | 9.7 | 0.00 | 0.00 | 0.00 | 76 | 1021.5 |
| 20260905194952 | 25 | 91 | 8.0 | 9.7 | 0.00 | 0.00 | 0.00 | 77 | 1021.6 |
| 20260905194451 | 25 | 107 | 8.0 | 9.7 | 0.00 | 0.00 | 0.00 | 76 | 1021.6 |
| 20260905193946 | 24 | 84 | 6.4 | 8.0 | 0.00 | 0.00 | 0.00 | 79 | 1021.8 |
| 20260905193446 | 24 | 20 | 1.6 | 1.6 | 0.00 | 0.00 | 0.00 | 80 | 1021.9 |
| 20260905192941 | 24 | 89 | 9.7 | 12.9 | 0.00 | 0.00 | 0.00 | 79 | 1021.9 |
| 20260905192436 | 26 | 126 | 6.4 | 8.0 | 0.00 | 0.00 | 0.00 | 74 | 1021.9 |
| 20260905191932 | 25 | 226 | 4.8 | 6.4 | 0.00 | 0.00 | 0.00 | 75 | 1021.5 |
| 20260905191431 | 25 | 1 | 3.2 | 3.2 | 0.00 | 0.00 | 0.00 | 76 | 1022.0 |
| 20260905190931 | 24 | 352 | 3.2 | 3.2 | 0.00 | 0.00 | 0.00 | 76 | 1021.9 |
| 20260905190429 | 25 | 74 | 6.4 | 8.0 | 0.00 | 0.00 | 0.00 | 77 | 1022.0 |
| 20260905185928 | 25 | 67 | 6.4 | 8.0 | 0.00 | 0.00 | 0.00 | 77 | 1021.9 |
| 20260905185423 | 25 | 140 | 3.2 | 6.4 | 0.00 | 0.00 | 0.00 | 78 | 1021.6 |
| 20260905184921 | 25 | 11 | 3.2 | 3.2 | 0.00 | 0.00 | 0.00 | 75 | 1021.8 |
| 20260905184417 | 24 | 81 | 3.2 | 3.2 | 0.00 | 0.00 | 0.00 | 78 | 1021.6 |
| 20260905183915 | 25 | 70 | 4.8 | 6.4 | 0.00 | 0.00 | 0.00 | 76 | 1021.9 |
| 20260905183410 | 23 | 27 | 0.0 | 0.0 | 0.00 | 0.00 | 0.00 | 75 | 1022.0 |
| 20260905182905 | 23 | 177 | 4.8 | 6.4 | 0.00 | 0.00 | 0.00 | 79 | 1022.0 |
| 20260905182404 | 24 | 18 | 1.6 | 1.6 | 0.00 | 0.00 | 0.00 | 80 | 1022.0 |
| 20260905181901 | 23 | 22 | 1.6 | 1.6 | 0.00 | 0.00 | 0.00 | 81 | 1022.3 |
| 20260905181400 | 24 | 65 | 6.4 | 8.0 | 0.00 | 0.00 | 0.00 | 79 | 1022.2 |
| 20260905180859 | 23 | 21 | 3.2 | 3.2 | 0.00 | 0.00 | 0.00 | 80 | 1022.2 |
| 20260905180354 | 23 | 17 | 3.2 | 3.2 | 0.00 | 0.00 | 0.00 | 80 | 1022.2 |
| 20260905175850 | 23 | 12 | 1.6 | 3.2 | 0.00 | 0.00 | 0.00 | 80 | 1022.2 |
| 20260905175349 | 23 | 30 | 3.2 | 3.2 | 0.00 | 0.00 | 0.00 | 80 | 1022.1 |
| 20260905174844 | 23 | 32 | 1.6 | 1.6 | 0.00 | 0.00 | 0.00 | 83 | 1022.2 |
| 20260905174340 | 23 | 59 | 6.4 | 8.0 | 0.00 | 0.00 | 0.00 | 82 | 1022.2 |
| 20260905173836 | 23 | 28 | 4.8 | 6.4 | 0.00 | 0.00 | 0.00 | 83 | 1022.2 |
| 20260905173332 | 23 | 149 | 6.4 | 8.0 | 0.00 | 0.00 | 0.00 | 84 | 1022.2 |
| 20260905172832 | 23 | 51 | 3.2 | 6.4 | 0.00 | 0.00 | 0.00 | 83 | 1022.3 |
| 20260905172329 | 23 | 5 | 6.4 | 9.7 | 0.00 | 0.00 | 0.00 | 83 | 1022.3 |
| 20260905171826 | 22 | 75 | 4.8 | 6.4 | 0.00 | 0.00 | 0.00 | 86 | 1022.4 |
| 20260905171323 | 22 | 98 | 8.0 | 9.7 | 0.00 | 0.00 | 0.00 | 86 | 1022.5 |
| 20260905170819 | 22 | 32 | 4.8 | 6.4 | 0.00 | 0.00 | 0.00 | 86 | 1022.4 |
| 20260905170314 | 22 | 49 | 6.4 | 8.0 | 0.00 | 0.00 | 0.00 | 87 | 1022.5 |
| 20260905165813 | 22 | 49 | 4.8 | 6.4 | 0.00 | 0.00 | 0.00 | 87 | 1022.6 |
| 20260905165309 | 22 | 19 | 1.6 | 1.6 | 0.00 | 0.00 | 0.00 | 88 | 1022.7 |
| 20260905164809 | 22 | 108 | 4.8 | 8.0 | 0.00 | 0.00 | 0.00 | 89 | 1022.7 |
| 20260905164309 | 22 | 68 | 4.8 | 6.4 | 0.00 | 0.00 | 0.00 | 88 | 1022.7 |
| 20260905163805 | 22 | 23 | 4.8 | 6.4 | 0.00 | 0.00 | 0.00 | 89 | 1022.7 |
| 20260905163301 | 21 | 68 | 6.4 | 8.0 | 0.00 | 0.00 | 0.00 | 91 | 1022.6 |
| 20260905162757 | 22 | 90 | 8.0 | 9.7 | 0.00 | 0.00 | 0.00 | 90 | 1022.6 |
| 20260905162256 | 21 | 30 | 3.2 | 3.2 | 0.00 | 0.00 | 0.00 | 90 | 1022.6 |
| 20260905161751 | 21 | 57 | 6.4 | 8.0 | 0.00 | 0.00 | 0.00 | 90 | 1022.4 |
| 20260905161250 | 21 | 114 | 9.7 | 12.9 | 0.00 | 0.00 | 0.00 | 90 | 1022.5 |
| 20260905160748 | 21 | 30 | 6.4 | 8.0 | 0.00 | 0.00 | 0.00 | 91 | 1022.5 |
| 20260905160243 | 21 | 101 | 4.8 | 8.0 | 0.00 | 0.00 | 0.00 | 91 | 1022.5 |
| 20260905155738 | 22 | 86 | 3.2 | 3.2 | 0.00 | 0.00 | 0.00 | 89 | 1022.5 |
| 20260905155236 | 21 | 33 | 1.6 | 3.2 | 0.00 | 0.00 | 0.00 | 91 | 1022.3 |
| 20260905154731 | 21 | 53 | 4.8 | 6.4 | 0.00 | 0.00 | 0.00 | 91 | 1022.4 |
| 20260905154227 | 21 | 34 | 6.4 | 6.4 | 0.00 | 0.00 | 0.00 | 92 | 1022.4 |
| 20260905153722 | 21 | 64 | 6.4 | 8.0 | 0.00 | 0.00 | 0.00 | 92 | 1022.3 |
| 20260905153218 | 21 | 59 | 3.2 | 6.4 | 0.00 | 0.00 | 0.00 | 93 | 1022.3 |
| 20260905152713 | 21 | 77 | 3.2 | 3.2 | 0.00 | 0.00 | 0.00 | 94 | 1022.4 |
| 20260905152207 | 21 | 98 | 6.4 | 6.4 | 0.00 | 0.00 | 0.00 | 94 | 1022.2 |
| 20260905151707 | 21 | 35 | 4.8 | 6.4 | 0.00 | 0.00 | 0.00 | 95 | 1022.2 |
| 20260905151203 | 20 | 24 | 3.2 | 3.2 | 0.00 | 0.00 | 0.00 | 96 | 1022.2 |
| 20260905150658 | 20 | 80 | 6.4 | 8.0 | 0.00 | 0.00 | 0.00 | 96 | 1022.2 |
| 20260905150157 | 20 | 45 | 4.8 | 8.0 | 0.00 | 0.00 | 0.00 | 96 | 1021.9 |
| 20260905145655 | 21 | 48 | 4.8 | 6.4 | 0.00 | 0.00 | 0.00 | 95 | 1022.1 |
| 20260905145155 | 21 | 21 | 3.2 | 3.2 | 0.00 | 0.00 | 0.00 | 95 | 1021.8 |
| 20260905144649 | 21 | 21 | 3.2 | 3.2 | 0.00 | 0.00 | 0.00 | 94 | 1021.8 |
| 20260905144148 | 21 | 25 | 1.6 | 3.2 | 0.00 | 0.00 | 0.00 | 95 | 1021.5 |
| 20260905143648 | 21 | 53 | 1.6 | 3.2 | 0.00 | 0.00 | 0.00 | 95 | 1021.4 |
| 20260905143143 | 21 | 51 | 4.8 | 8.0 | 0.00 | 0.00 | 0.00 | 95 | 1021.4 |
| 20260905142641 | 21 | 107 | 8.0 | 9.7 | 0.00 | 0.00 | 0.00 | 95 | 1021.3 |
| 20260905142136 | 21 | 9 | 1.6 | 1.6 | 0.00 | 0.00 | 0.00 | 95 | 1021.5 |
| 20260905141631 | 21 | 16 | 0.0 | 0.0 | 0.00 | 0.00 | 0.00 | 95 | 1021.4 |
| 20260905141127 | 21 | 4 | 3.2 | 6.4 | 0.00 | 0.00 | 0.00 | 95 | 1021.5 |
| 20260905140622 | 21 | 46 | 4.8 | 6.4 | 0.00 | 0.00 | 0.00 | 95 | 1021.4 |
| 20260905140121 | 21 | 25 | 3.2 | 3.2 | 0.00 | 0.00 | 0.00 | 95 | 1021.2 |
| 20260905135617 | 21 | 85 | 4.8 | 6.4 | 0.00 | 0.00 | 0.00 | 95 | 1021.3 |
| 20260905135112 | 21 | 102 | 4.8 | 6.4 | 0.00 | 0.00 | 0.00 | 95 | 1021.3 |